Time;durP1;ratioP1;P1;durP2;ratioP2;P2;SDS_P1;SDS_P2;PMS_P1;PMS_P2;Temp;Humidity;BMP_temperature;BMP_pressure;BME280_temperature;BME280_humidity;BME280_pressure;Samples;Min_cycle;Max_cycle;Signal;HPM_P1;HPM_P2
2022/06/17 00:01:34;;;;;;;5.00;3.40;;;;;;;25.43;47.14;101050.52;106970;1283;74842;-84
2022/06/17 00:04:00;;;;;;;5.00;3.30;;;;;;;25.43;47.32;101050.17;107192;1283;62069;-85
2022/06/17 00:06:28;;;;;;;4.60;3.10;;;;;;;25.42;47.18;101046.61;107095;1283;62088;-87
2022/06/17 00:08:54;;;;;;;6.40;3.30;;;;;;;25.43;47.34;101042.58;107070;1283;60879;-83
2022/06/17 00:11:25;;;;;;;4.50;3.30;;;;;;;25.43;47.31;101042.77;107247;1281;62031;-86
2022/06/17 00:13:51;;;;;;;4.40;3.20;;;;;;;25.43;47.37;101040.61;107078;1283;74817;-86
2022/06/17 00:16:18;;;;;;;4.70;3.30;;;;;;;25.43;47.22;101039.19;106963;1284;62021;-84
2022/06/17 00:18:44;;;;;;;4.60;3.30;;;;;;;25.42;47.37;101036.70;107212;1281;61914;-84
2022/06/17 00:21:33;;;;;;;4.70;3.20;;;;;;;25.43;47.26;101035.60;107285;1281;62054;-83
2022/06/17 00:24:00;;;;;;;3.90;3.00;;;;;;;25.43;47.28;101030.02;107204;1281;75298;-86
2022/06/17 00:26:25;;;;;;;5.00;3.00;;;;;;;25.42;47.39;101029.14;107217;1283;62031;-83
2022/06/17 00:28:51;;;;;;;4.80;3.10;;;;;;;25.42;47.51;101024.48;106901;1283;62306;-81
2022/06/17 00:31:17;;;;;;;4.90;3.10;;;;;;;25.42;47.43;101023.56;106955;1281;62065;-86
2022/06/17 00:33:43;;;;;;;4.40;3.00;;;;;;;25.42;47.44;101020.85;106889;1283;61920;-83
2022/06/17 00:36:16;;;;;;;4.20;3.20;;;;;;;25.42;47.27;101019.77;106879;1283;62061;-85
2022/06/17 00:38:43;;;;;;;4.30;3.30;;;;;;;25.42;47.44;101019.44;107079;1282;61909;-83
2022/06/17 00:41:19;;;;;;;4.00;3.00;;;;;;;25.42;47.40;101019.64;106863;1283;62007;-83
2022/06/17 00:43:44;;;;;;;5.60;3.10;;;;;;;25.42;47.44;101019.63;107076;1283;75875;-83
2022/06/17 00:46:38;;;;;;;4.30;3.10;;;;;;;25.42;47.47;101019.09;107209;1281;62078;-83
2022/06/17 00:49:15;;;;;;;4.20;3.30;;;;;;;25.41;47.47;101014.98;107224;1283;63581;-81
2022/06/17 00:51:44;;;;;;;4.30;3.20;;;;;;;25.42;47.36;101014.96;107058;1283;72744;-83
2022/06/17 00:54:28;;;;;;;3.90;3.00;;;;;;;25.41;47.58;101016.08;107224;1283;76319;-83
2022/06/17 00:56:53;;;;;;;4.60;3.00;;;;;;;25.41;47.54;101012.29;107082;1283;62041;-83
2022/06/17 00:59:19;;;;;;;4.90;3.20;;;;;;;25.41;47.62;101012.86;107252;1283;62079;-85
2022/06/17 01:01:59;;;;;;;4.10;3.00;;;;;;;25.41;47.55;101006.02;107078;1283;62058;-83
2022/06/17 01:04:28;;;;;;;5.10;3.10;;;;;;;25.41;47.56;101002.06;106891;1283;76915;-85
2022/06/17 01:07:06;;;;;;;4.20;2.90;;;;;;;25.41;47.43;101000.63;106915;1283;62226;-84
2022/06/17 01:12:19;;;;;;;3.80;3.00;;;;;;;25.40;47.51;100998.90;106940;1283;72865;-84
2022/06/17 01:14:45;;;;;;;4.30;3.10;;;;;;;25.40;47.55;100999.79;106976;1283;74449;-83
2022/06/17 01:17:12;;;;;;;5.20;2.90;;;;;;;25.40;47.47;101003.05;107249;1281;62062;-84
2022/06/17 01:19:43;;;;;;;4.50;3.20;;;;;;;25.40;47.63;101001.41;106881;1283;62047;-83
2022/06/17 01:22:18;;;;;;;4.00;2.90;;;;;;;25.40;47.62;100998.35;107215;1283;72734;-84
2022/06/17 01:24:45;;;;;;;4.10;3.30;;;;;;;25.40;47.56;101001.41;107210;1283;74474;-84
2022/06/17 01:27:10;;;;;;;4.80;3.20;;;;;;;25.40;47.46;100997.83;107087;1282;61916;-83
2022/06/17 01:29:36;;;;;;;4.10;3.00;;;;;;;25.40;47.58;100995.13;107254;1283;62047;-83
2022/06/17 01:32:02;;;;;;;4.30;2.80;;;;;;;25.40;47.56;100992.08;106896;1283;62171;-86
2022/06/17 01:34:27;;;;;;;4.70;3.20;;;;;;;25.40;47.64;100991.20;107256;1281;62079;-84
2022/06/17 01:36:53;;;;;;;3.90;2.80;;;;;;;25.40;47.61;100995.13;107117;1283;62073;-83
2022/06/17 01:39:19;;;;;;;5.00;2.90;;;;;;;25.39;47.73;100996.80;107261;1282;62091;-83
2022/06/17 01:41:46;;;;;;;4.40;2.80;;;;;;;25.39;47.60;100996.09;107193;1283;62049;-83
2022/06/17 01:44:25;;;;;;;4.10;3.00;;;;;;;25.39;47.65;101001.67;106892;1283;72756;-85
2022/06/17 01:46:53;;;;;;;4.30;3.00;;;;;;;25.39;47.63;101006.36;107106;1281;75628;-85
2022/06/17 01:49:27;;;;;;;3.60;2.90;;;;;;;25.39;47.80;101011.80;107247;1281;61928;-84
2022/06/17 01:52:23;;;;;;;5.80;3.20;;;;;;;25.39;47.77;101011.09;106966;1283;62124;-84
2022/06/17 01:54:52;;;;;;;4.40;3.00;;;;;;;25.38;47.73;101013.81;107242;1281;73708;-85
2022/06/17 01:57:23;;;;;;;5.60;2.90;;;;;;;25.38;47.65;101011.88;107066;1281;75470;-82
2022/06/17 01:59:56;;;;;;;4.40;3.00;;;;;;;25.38;47.66;101006.95;107194;1281;61969;-85
2022/06/17 02:02:22;;;;;;;5.50;3.10;;;;;;;25.39;47.86;101004.23;106981;1281;62041;-85
2022/06/17 02:04:57;;;;;;;4.20;2.90;;;;;;;25.38;47.75;101005.36;106976;1281;62228;-83
2022/06/17 02:07:35;;;;;;;4.80;3.30;;;;;;;25.38;47.70;101003.71;106867;1281;75988;-81
2022/06/17 02:10:01;;;;;;;3.90;2.90;;;;;;;25.39;47.69;101004.59;107004;1281;62016;-82
2022/06/17 02:12:28;;;;;;;5.10;2.90;;;;;;;25.38;47.67;101002.85;106871;1283;62091;-83
2022/06/17 02:14:54;;;;;;;3.70;2.80;;;;;;;25.38;47.75;101003.91;106885;1283;73085;-83
2022/06/17 02:17:23;;;;;;;4.10;3.10;;;;;;;25.38;47.85;101013.80;107259;1281;62062;-84
2022/06/17 02:19:49;;;;;;;3.70;2.80;;;;;;;25.38;47.71;101011.88;106893;1283;61838;-84
2022/06/17 02:22:24;;;;;;;4.40;3.00;;;;;;;25.37;47.74;101010.48;106894;1286;62171;-86
2022/06/17 02:24:50;;;;;;;4.50;2.90;;;;;;;25.38;47.66;101009.91;107092;1281;74147;-84
2022/06/17 02:27:15;;;;;;;5.20;3.00;;;;;;;25.38;47.88;101006.66;107211;1282;62123;-84
2022/06/17 02:29:41;;;;;;;4.30;3.00;;;;;;;25.38;47.79;101011.37;107242;1281;62081;-84
2022/06/17 02:32:07;;;;;;;5.20;3.10;;;;;;;25.38;47.69;101008.11;106941;1282;61972;-84
2022/06/17 02:34:33;;;;;;;4.30;3.00;;;;;;;25.37;47.78;101008.48;106860;1283;62078;-84
2022/06/17 02:37:03;;;;;;;3.90;2.80;;;;;;;25.38;47.87;101006.87;107273;1281;62106;-85
2022/06/17 02:39:28;;;;;;;5.00;2.80;;;;;;;25.37;47.73;101001.13;106885;1283;62058;-84
2022/06/17 02:41:54;;;;;;;4.20;2.90;;;;;;;25.37;47.78;101002.91;106996;1281;62094;-83
2022/06/17 02:44:27;;;;;;;4.50;3.00;;;;;;;25.37;47.90;100999.90;106899;1283;62039;-83
2022/06/17 02:46:54;;;;;;;4.00;2.60;;;;;;;25.37;47.81;100999.34;107185;1281;74910;-84
2022/06/17 02:49:29;;;;;;;4.60;3.00;;;;;;;25.38;48.01;101006.33;107084;1281;62624;-84
2022/06/17 02:51:55;;;;;;;5.10;2.90;;;;;;;25.37;47.86;101007.11;107216;1283;60408;-84
2022/06/17 02:54:29;;;;;;;5.20;3.20;;;;;;;25.37;48.07;101000.58;106881;1283;62168;-85
2022/06/17 02:56:56;;;;;;;7.30;3.10;;;;;;;25.37;47.94;100995.20;106986;1283;76576;-84
2022/06/17 02:59:29;;;;;;;4.50;2.90;;;;;;;25.36;47.84;100997.04;107245;1283;62076;-84
2022/06/17 03:01:58;;;;;;;5.80;2.90;;;;;;;25.36;48.08;100991.64;106890;1283;62053;-86
2022/06/17 03:04:28;;;;;;;4.60;2.70;;;;;;;25.36;47.94;100990.95;107080;1283;73787;-84
2022/06/17 03:06:54;;;;;;;5.70;3.20;;;;;;;25.36;47.93;100990.04;107094;1283;75540;-85
2022/06/17 03:09:21;;;;;;;4.50;3.00;;;;;;;25.37;48.01;100990.00;107083;1283;62038;-80
2022/06/17 03:11:57;;;;;;;5.30;2.90;;;;;;;25.36;47.94;100993.43;107203;1283;62069;-83
2022/06/17 03:14:23;;;;;;;4.60;2.80;;;;;;;25.36;47.90;100996.68;107082;1283;72666;-83
2022/06/17 03:16:54;;;;;;;6.00;3.10;;;;;;;25.36;47.93;100995.62;106825;1286;62137;-83
2022/06/17 03:19:21;;;;;;;4.30;3.10;;;;;;;25.36;47.99;100996.16;107237;1283;62066;-83
2022/06/17 03:21:47;;;;;;;4.40;3.10;;;;;;;25.37;47.92;100996.85;107257;1281;61940;-82
2022/06/17 03:24:24;;;;;;;4.50;2.90;;;;;;;25.36;47.97;100996.19;107253;1281;61991;-84
2022/06/17 03:26:57;;;;;;;5.10;3.40;;;;;;;25.37;48.00;100994.14;107148;1283;76309;-84
2022/06/17 03:29:24;;;;;;;5.80;3.30;;;;;;;25.36;48.03;101001.20;107232;1283;62049;-83
2022/06/17 03:32:11;;;;;;;4.90;3.30;;;;;;;25.37;48.14;101006.04;106893;1283;62079;-83
2022/06/17 03:34:42;;;;;;;3.70;3.00;;;;;;;25.36;48.01;101001.03;106909;1283;73531;-83
2022/06/17 03:37:20;;;;;;;4.70;3.30;;;;;;;25.36;47.91;101006.77;106848;1283;76613;-83
2022/06/17 03:40:03;;;;;;;5.30;3.40;;;;;;;25.37;48.06;101005.70;106875;1284;61991;-86
2022/06/17 03:42:36;;;;;;;4.30;3.00;;;;;;;25.36;48.09;101004.82;107210;1283;63197;-83
2022/06/17 03:45:16;;;;;;;4.80;3.30;;;;;;;25.37;48.07;101004.58;107038;1281;72874;-84
2022/06/17 03:48:00;;;;;;;5.50;3.40;;;;;;;25.36;48.07;101004.45;107073;1281;76249;-85
2022/06/17 03:50:37;;;;;;;4.90;3.60;;;;;;;25.37;48.03;101005.32;106911;1283;62089;-84
2022/06/17 03:53:16;;;;;;;4.50;3.30;;;;;;;25.36;48.02;101007.68;106899;1283;62003;-84
2022/06/17 03:55:42;;;;;;;4.90;3.50;;;;;;;25.37;48.11;101007.83;107063;1283;72749;-86
2022/06/17 03:58:10;;;;;;;4.20;3.10;;;;;;;25.36;48.10;101007.89;106888;1283;62220;-83
2022/06/17 04:00:49;;;;;;;4.20;3.30;;;;;;;25.37;47.95;101010.51;106851;1283;61896;-83
2022/06/17 04:03:21;;;;;;;5.90;3.90;;;;;;;25.37;48.00;101009.62;107060;1283;61951;-83
2022/06/17 04:05:55;;;;;;;4.40;3.10;;;;;;;25.37;48.16;101003.34;106893;1283;72744;-83
2022/06/17 04:08:20;;;;;;;4.70;3.60;;;;;;;25.37;48.08;101003.54;106808;1283;75672;-83
2022/06/17 04:10:46;;;;;;;5.70;3.90;;;;;;;25.37;48.07;101005.64;106753;1284;62073;-83
2022/06/17 04:13:14;;;;;;;4.90;3.60;;;;;;;25.37;48.10;101009.95;107157;1283;62041;-83
2022/06/17 04:16:21;;;;;;;6.90;3.80;;;;;;;25.37;48.20;101014.86;106947;1283;61022;-82
2022/06/17 04:18:47;;;;;;;6.80;3.40;;;;;;;25.36;48.04;101016.56;106303;1288;75157;-83
2022/06/17 04:21:13;;;;;;;4.60;3.40;;;;;;;25.36;48.03;101018.53;106275;1289;62077;-81
2022/06/17 04:23:39;;;;;;;6.10;3.30;;;;;;;25.36;48.14;101018.86;106292;1289;62114;-82
2022/06/17 04:26:30;;;;;;;6.90;3.20;;;;;;;25.36;48.01;101019.23;106092;1289;62015;-84
2022/06/17 04:29:07;;;;;;;6.70;3.50;;;;;;;25.36;48.05;101023.36;106114;1290;76469;-85
2022/06/17 04:31:33;;;;;;;5.90;3.40;;;;;;;25.36;48.12;101023.36;106112;1289;62067;-83
2022/06/17 04:34:06;;;;;;;6.90;3.30;;;;;;;25.36;48.04;101020.85;106212;1289;62095;-84
2022/06/17 04:36:41;;;;;;;6.80;3.30;;;;;;;25.36;48.04;101024.44;106200;1289;73094;-83
2022/06/17 04:39:18;;;;;;;7.40;3.30;;;;;;;25.36;48.11;101019.60;106133;1289;75461;-84
2022/06/17 04:41:44;;;;;;;7.40;3.20;;;;;;;25.37;47.93;101020.80;106257;1289;61957;-84
2022/06/17 04:44:11;;;;;;;6.00;3.40;;;;;;;25.37;48.04;101019.01;106304;1289;62606;-83
2022/06/17 04:46:44;;;;;;;6.10;3.40;;;;;;;25.37;48.02;101015.91;106293;1289;73146;-83
2022/06/17 04:49:24;;;;;;;8.10;3.30;;;;;;;25.36;48.03;101014.52;106374;1284;75436;-82
2022/06/17 04:51:51;;;;;;;7.80;3.70;;;;;;;25.37;47.97;101017.56;106687;1284;61919;-86
2022/06/17 04:54:17;;;;;;;5.00;3.60;;;;;;;25.37;47.77;101017.05;107243;1283;62364;-84
2022/06/17 04:56:48;;;;;;;5.60;3.20;;;;;;;25.37;47.85;101017.70;107002;1283;62082;-84
2022/06/17 04:59:23;;;;;;;5.50;3.30;;;;;;;25.37;47.87;101015.36;107011;1281;75516;-84
2022/06/17 05:01:48;;;;;;;5.80;3.30;;;;;;;25.38;47.88;101015.52;107287;1281;62082;-83
2022/06/17 05:04:14;;;;;;;6.50;3.80;;;;;;;25.38;47.55;101017.48;106999;1281;62533;-84
2022/06/17 05:06:40;;;;;;;5.50;3.50;;;;;;;25.38;47.62;101019.45;107260;1281;62072;-84
2022/06/17 05:09:23;;;;;;;7.70;3.70;;;;;;;25.38;47.69;101018.49;106970;1281;62071;-83
2022/06/17 05:11:53;;;;;;;9.20;3.60;;;;;;;25.38;47.65;101010.05;107275;1281;61909;-83
2022/06/17 05:14:29;;;;;;;;;;;;;;;25.38;47.42;101011.27;106896;1283;61945;-84
2022/06/17 05:16:56;;;;;;;6.00;3.40;;;;;;;25.37;47.35;101012.17;107115;1283;73846;-84
2022/06/17 05:19:22;;;;;;;5.00;3.30;;;;;;;25.38;47.43;101008.12;106847;1283;75377;-84
2022/06/17 05:21:48;;;;;;;6.10;3.40;;;;;;;25.39;47.33;101001.89;107003;1283;62076;-83
2022/06/17 05:24:13;;;;;;;6.80;3.30;;;;;;;25.39;47.47;101004.73;107070;1283;62133;-83
2022/06/17 05:26:39;;;;;;;6.10;3.10;;;;;;;25.40;47.31;101010.59;106849;1283;62049;-84
2022/06/17 05:29:08;;;;;;;8.40;3.30;;;;;;;25.41;47.24;101009.75;106842;1283;62143;-84
2022/06/17 05:31:35;;;;;;;6.00;3.10;;;;;;;25.41;47.06;101004.52;107113;1283;62156;-84
2022/06/17 05:34:02;;;;;;;7.40;3.10;;;;;;;25.41;46.96;100999.31;107089;1283;62147;-85
2022/06/17 05:36:28;;;;;;;5.90;3.10;;;;;;;25.42;46.92;101006.09;106786;1284;72632;-84
2022/06/17 05:38:54;;;;;;;6.80;3.30;;;;;;;25.43;46.81;101003.69;106807;1284;62027;-85
2022/06/17 05:41:22;;;;;;;6.40;3.40;;;;;;;25.44;46.64;101002.33;107058;1283;62073;-83
2022/06/17 05:43:49;;;;;;;6.50;3.20;;;;;;;25.45;46.67;101005.34;106876;1284;62026;-83
2022/06/17 05:46:16;;;;;;;5.70;3.10;;;;;;;25.46;46.69;101005.44;106721;1283;72705;-83
2022/06/17 05:48:42;;;;;;;5.20;3.10;;;;;;;25.47;46.65;101006.38;106698;1284;77045;-83
2022/06/17 05:51:10;;;;;;;5.90;3.30;;;;;;;25.49;46.53;101003.23;106672;1283;62066;-83
2022/06/17 05:53:35;;;;;;;5.50;3.20;;;;;;;25.49;46.60;101004.95;106924;1283;61926;-83
2022/06/17 05:56:01;;;;;;;6.10;3.50;;;;;;;25.50;46.43;101003.50;107098;1281;62059;-83
2022/06/17 05:58:27;;;;;;;6.70;3.60;;;;;;;25.50;46.61;101001.30;106788;1284;62958;-83
2022/06/17 06:00:52;;;;;;;6.50;3.00;;;;;;;25.50;46.40;101002.36;107086;1283;62255;-83
2022/06/17 06:03:20;;;;;;;6.30;3.20;;;;;;;25.51;46.32;100997.96;106841;1284;61922;-82
2022/06/17 06:05:46;;;;;;;6.80;3.40;;;;;;;25.51;46.20;100996.73;107076;1283;62041;-83
2022/06/17 06:08:11;;;;;;;6.70;3.70;;;;;;;25.51;46.16;100995.75;106594;1283;62056;-83
2022/06/17 06:10:37;;;;;;;6.90;3.10;;;;;;;25.52;46.08;100994.59;107113;1281;62084;-82
2022/06/17 06:13:03;;;;;;;7.60;3.00;;;;;;;25.53;46.09;100997.08;106638;1284;62989;-83
2022/06/17 06:15:38;;;;;;;7.00;3.20;;;;;;;25.54;46.03;100996.29;106099;1284;1276509;-83
2022/06/17 06:18:09;;;;;;;7.50;2.80;;;;;;;25.54;45.76;100992.84;107154;1281;72773;-83
2022/06/17 06:20:34;;;;;;;9.20;2.90;;;;;;;25.54;45.96;100994.10;107106;1283;76387;-83
2022/06/17 06:23:00;;;;;;;7.40;3.40;;;;;;;25.55;45.81;100994.75;106954;1283;62050;-83
2022/06/17 06:25:26;;;;;;;8.80;3.20;;;;;;;25.54;45.76;100989.04;106970;1281;62069;-83
2022/06/17 06:27:51;;;;;;;6.00;3.00;;;;;;;25.54;45.75;100990.31;106972;1283;62059;-83
2022/06/17 06:30:26;;;;;;;7.40;3.30;;;;;;;25.54;45.76;100991.05;107088;1281;62108;-82
2022/06/17 06:33:15;;;;;;;7.00;3.00;;;;;;;25.53;45.80;100991.79;107092;1283;76600;-83
2022/06/17 06:35:42;;;;;;;7.30;3.20;;;;;;;25.53;45.68;100988.20;106226;1289;62105;-83
2022/06/17 06:38:08;;;;;;;7.70;3.50;;;;;;;25.54;45.60;100982.94;105955;1290;62256;-82
2022/06/17 06:40:34;;;;;;;5.80;3.30;;;;;;;25.53;45.51;100983.73;105971;1291;60680;-83
2022/06/17 06:43:00;;;;;;;8.70;3.40;;;;;;;25.53;45.32;100983.34;105753;1289;62276;-83
2022/06/17 06:45:32;;;;;;;6.80;3.40;;;;;;;25.54;45.56;100979.84;106029;1289;62051;-82
2022/06/17 06:48:00;;;;;;;5.20;3.20;;;;;;;25.55;45.35;100977.63;105899;1290;61969;-83
2022/06/17 06:50:27;;;;;;;8.20;3.00;;;;;;;25.54;45.38;100978.39;106112;1290;73806;-83
2022/06/17 06:52:53;;;;;;;6.60;2.90;;;;;;;25.55;45.33;100979.42;106158;1289;75196;-83
2022/06/17 06:55:19;;;;;;;8.80;3.50;;;;;;;25.55;45.21;100975.09;105835;1290;62849;-83
2022/06/17 06:57:58;;;;;;;6.20;3.30;;;;;;;25.55;45.19;100972.91;106269;1289;62045;-83
2022/06/17 07:00:44;;;;;;;5.70;2.90;;;;;;;25.55;45.21;100975.20;106128;1289;73663;-81
2022/06/17 07:03:09;;;;;;;6.20;3.40;;;;;;;25.57;45.09;100970.23;106082;1290;75297;-82
2022/06/17 07:05:37;;;;;;;5.50;3.10;;;;;;;25.58;45.16;100969.98;105811;1290;62107;-82
2022/06/17 07:08:07;;;;;;;6.00;3.00;;;;;;;25.59;44.88;100970.22;105638;1291;62292;-81
2022/06/17 07:10:33;;;;;;;7.30;3.30;;;;;;;25.59;45.02;100971.45;105768;1291;72714;-81
2022/06/17 07:12:59;;;;;;;6.50;3.20;;;;;;;25.60;44.89;100970.99;106411;1281;75456;-82
2022/06/17 07:15:25;;;;;;;8.50;3.20;;;;;;;25.61;44.74;100974.93;106953;1281;63271;-81
2022/06/17 07:18:10;;;;;;;6.50;3.10;;;;;;;25.63;44.76;100976.95;107047;1281;62067;-83
2022/06/17 07:20:37;;;;;;;6.70;3.40;;;;;;;25.63;44.90;100975.47;106566;1284;73753;-82
2022/06/17 07:23:04;;;;;;;6.10;3.00;;;;;;;25.63;44.88;100975.08;106914;1281;76616;-85
2022/06/17 07:25:30;;;;;;;6.70;3.20;;;;;;;25.64;44.86;100973.57;106913;1283;62082;-84
2022/06/17 07:27:56;;;;;;;6.80;3.10;;;;;;;25.64;44.43;100976.62;106913;1281;62075;-82
2022/06/17 07:30:21;;;;;;;7.20;3.00;;;;;;;25.64;44.43;100976.23;107005;1281;62014;-82
2022/06/17 07:32:47;;;;;;;7.60;3.40;;;;;;;25.65;44.43;100975.13;106795;1283;62125;-82
2022/06/17 07:35:13;;;;;;;6.60;3.20;;;;;;;25.65;44.36;100976.02;106507;1283;62056;-82
2022/06/17 07:40:23;;;;;;;6.30;3.10;;;;;;;25.64;44.50;100979.13;107007;1281;62121;-82
2022/06/17 07:42:48;;;;;;;8.20;3.10;;;;;;;25.65;44.35;100977.47;106928;1281;62129;-82
2022/06/17 07:45:16;;;;;;;5.30;3.00;;;;;;;25.65;44.26;100978.70;106862;1282;62078;-82
2022/06/17 07:47:42;;;;;;;8.40;3.60;;;;;;;25.66;44.31;100974.71;106869;1281;60033;-83
2022/06/17 07:50:10;;;;;;;7.80;3.20;;;;;;;25.66;44.48;100977.75;106943;1281;62085;-83
2022/06/17 07:52:36;;;;;;;7.90;2.90;;;;;;;25.66;44.38;100975.55;107074;1282;73706;-82
2022/06/17 07:55:01;;;;;;;8.10;3.20;;;;;;;25.67;44.62;100974.80;106811;1283;62258;-81
2022/06/17 07:57:27;;;;;;;9.50;3.30;;;;;;;25.66;44.58;100972.10;106848;1283;62201;-82
2022/06/17 07:59:53;;;;;;;16.70;3.30;;;;;;;25.67;44.49;100970.80;106932;1283;64294;-84
2022/06/17 08:02:18;;;;;;;7.50;3.50;;;;;;;25.67;44.54;100967.16;106700;1284;62082;-84
2022/06/17 08:04:44;;;;;;;9.20;3.40;;;;;;;25.69;44.65;100968.48;106995;1281;62088;-84
2022/06/17 08:07:09;;;;;;;7.60;3.00;;;;;;;25.69;44.40;100968.44;106907;1283;62082;-84
2022/06/17 08:09:35;;;;;;;7.30;3.50;;;;;;;25.70;44.62;100966.25;106998;1281;62062;-83
2022/06/17 08:12:00;;;;;;;9.40;3.20;;;;;;;25.70;44.60;100968.56;107123;1281;62052;-82
2022/06/17 08:14:26;;;;;;;8.00;3.10;;;;;;;25.70;44.50;100967.08;106977;1282;62092;-82
2022/06/17 08:16:52;;;;;;;6.80;2.90;;;;;;;25.70;44.46;100965.60;107028;1283;62178;-82
2022/06/17 08:19:19;;;;;;;5.60;3.00;;;;;;;25.70;44.40;100967.05;107097;1284;62073;-83
2022/06/17 08:21:46;;;;;;;7.00;3.10;;;;;;;25.70;44.30;100966.54;107055;1283;62053;-84
2022/06/17 08:24:12;;;;;;;4.70;3.10;;;;;;;25.70;44.53;100966.88;106814;1283;62191;-82
2022/06/17 08:26:37;;;;;;;5.60;2.90;;;;;;;25.71;44.36;100964.32;106832;1284;62076;-83
2022/06/17 08:29:03;;;;;;;8.40;3.30;;;;;;;25.70;44.32;100963.30;107126;1281;62028;-83
2022/06/17 08:31:28;;;;;;;6.60;3.10;;;;;;;25.70;44.27;100965.12;107152;1281;62126;-83
2022/06/17 08:33:54;;;;;;;7.60;3.20;;;;;;;25.70;44.22;100962.07;107248;1281;62181;-83
2022/06/17 08:36:21;;;;;;;5.80;3.00;;;;;;;25.70;44.06;100959.20;107159;1281;62046;-83
2022/06/17 08:38:52;;;;;;;6.30;2.80;;;;;;;25.70;44.38;100955.21;107060;1282;72724;-83
2022/06/17 08:41:28;;;;;;;5.90;3.00;;;;;;;25.70;44.14;100948.35;107195;1281;76546;-83
2022/06/17 08:44:09;;;;;;;8.40;3.00;;;;;;;25.70;43.97;100947.07;107060;1283;62076;-85
2022/06/17 08:46:56;;;;;;;7.40;3.30;;;;;;;25.70;44.09;100945.25;107156;1283;62022;-84
2022/06/17 08:49:56;;;;;;;4.60;2.90;;;;;;;25.70;44.27;100946.92;107055;1283;72598;-84
2022/06/17 08:52:30;;;;;;;6.90;3.00;;;;;;;25.70;44.15;100940.04;107117;1283;76051;-85
2022/06/17 08:55:03;;;;;;;5.00;2.90;;;;;;;25.70;44.19;100939.73;107099;1283;61926;-81
2022/06/17 08:57:49;;;;;;;5.60;2.90;;;;;;;25.70;44.11;100938.30;106913;1283;62073;-83
2022/06/17 09:00:15;;;;;;;6.10;3.10;;;;;;;25.69;44.14;100934.91;106936;1283;73490;-83
2022/06/17 09:03:09;;;;;;;7.60;3.40;;;;;;;25.69;44.17;100935.63;107142;1281;62172;-86
2022/06/17 09:05:43;;;;;;;4.40;2.90;;;;;;;25.69;44.01;100935.48;107074;1283;62184;-82
2022/06/17 09:08:34;;;;;;;6.70;3.10;;;;;;;25.69;44.23;100937.63;107057;1281;62053;-83
2022/06/17 09:11:33;;;;;;;5.90;2.90;;;;;;;25.69;44.20;100931.33;106621;1284;71549;-83
2022/06/17 09:14:08;;;;;;;7.00;2.90;;;;;;;25.69;44.03;100927.91;107159;1281;76373;-83
2022/06/17 09:16:52;;;;;;;5.40;3.00;;;;;;;25.70;44.34;100926.92;107155;1281;62200;-82
2022/06/17 09:19:26;;;;;;;5.40;3.00;;;;;;;25.70;44.30;100925.79;107196;1281;61966;-82
2022/06/17 09:21:53;;;;;;;6.70;3.00;;;;;;;25.71;44.33;100925.33;107066;1283;73760;-83
2022/06/17 09:24:24;;;;;;;5.30;3.20;;;;;;;25.71;44.19;100924.95;106995;1283;76772;-83
2022/06/17 09:27:01;;;;;;;7.20;3.20;;;;;;;25.72;43.93;100921.35;107107;1283;62088;-85
2022/06/17 09:29:50;;;;;;;7.30;2.90;;;;;;;25.72;44.17;100920.22;106950;1283;62232;-83
2022/06/17 09:32:42;;;;;;;7.30;2.90;;;;;;;25.73;44.18;100919.44;107190;1283;72441;-83
2022/06/17 09:35:14;;;;;;;6.20;3.10;;;;;;;25.72;44.18;100915.94;107053;1282;76348;-84
2022/06/17 09:37:44;;;;;;;5.90;2.90;;;;;;;25.72;44.06;100912.30;107015;1283;62467;-82
2022/06/17 09:40:32;;;;;;;5.20;3.00;;;;;;;25.72;44.10;100912.64;106981;1283;62049;-81
2022/06/17 09:43:09;;;;;;;4.70;2.90;;;;;;;25.72;44.05;100913.88;106846;1281;72728;-82
2022/06/17 09:45:44;;;;;;;6.30;3.10;;;;;;;25.73;44.15;100912.16;107031;1281;76903;-82
2022/06/17 09:48:17;;;;;;;5.10;2.80;;;;;;;25.73;44.13;100911.98;106943;1281;61979;-85
2022/06/17 09:51:02;;;;;;;4.80;2.80;;;;;;;25.75;44.24;100917.12;106943;1283;62082;-82
2022/06/17 09:53:38;;;;;;;4.90;3.10;;;;;;;25.75;44.45;100910.97;107033;1281;73393;-83
2022/06/17 09:56:17;;;;;;;6.50;2.70;;;;;;;25.74;44.33;100907.22;106832;1281;76700;-82
2022/06/17 09:59:17;;;;;;;6.80;3.00;;;;;;;25.75;44.25;100908.08;106800;1283;62106;-82
2022/06/17 10:01:42;;;;;;;6.20;3.10;;;;;;;25.74;44.30;100903.05;106906;1281;63248;-83
2022/06/17 10:04:12;;;;;;;5.90;3.20;;;;;;;25.75;44.23;100895.29;106916;1283;62647;-82
2022/06/17 10:06:47;;;;;;;6.50;3.20;;;;;;;25.75;44.22;100887.70;107081;1283;76871;-83
2022/06/17 10:09:15;;;;;;;6.30;3.30;;;;;;;25.75;44.30;100883.00;107063;1281;62034;-83
2022/06/17 10:11:56;;;;;;;5.00;3.00;;;;;;;25.76;44.35;100876.46;107041;1283;62078;-83
2022/06/17 10:14:33;;;;;;;8.70;3.10;;;;;;;25.75;44.13;100876.16;107167;1281;73798;-83
2022/06/17 10:20:26;;;;;;;6.20;3.40;;;;;;;25.74;44.38;100870.61;107130;1283;62061;-83
2022/06/17 10:23:27;;;;;;;6.70;3.60;;;;;;;25.74;44.13;100868.13;107104;1283;62078;-82
2022/06/17 10:26:21;;;;;;;5.00;3.10;;;;;;;25.74;44.24;100864.02;107002;1283;72469;-83
2022/06/17 10:28:53;;;;;;;5.60;3.60;;;;;;;25.74;44.17;100864.17;106988;1283;76475;-82
2022/06/17 10:31:39;;;;;;;5.20;3.30;;;;;;;25.74;44.35;100867.98;107138;1283;61919;-87
2022/06/17 10:34:24;;;;;;;8.30;3.50;;;;;;;25.73;44.28;100862.61;106960;1283;61994;-82
2022/06/17 10:36:52;;;;;;;6.50;3.70;;;;;;;25.73;44.25;100860.67;106913;1282;74217;-82
2022/06/17 10:39:19;;;;;;;5.10;3.50;;;;;;;25.74;44.31;100864.04;106794;1283;75632;-83
2022/06/17 10:41:44;;;;;;;6.40;3.70;;;;;;;25.74;44.30;100861.50;106577;1283;62060;-84
2022/06/17 10:44:11;;;;;;;6.80;4.00;;;;;;;25.74;44.25;100853.73;106653;1283;60211;-83
2022/06/17 10:46:39;;;;;;;5.30;3.60;;;;;;;25.75;44.39;100852.77;106851;1281;60330;-82
2022/06/17 10:49:35;;;;;;;5.20;3.60;;;;;;;25.75;44.37;100849.64;107216;1283;76473;-82
2022/06/17 10:52:01;;;;;;;4.90;3.40;;;;;;;25.75;44.34;100851.44;107091;1283;61300;-82
2022/06/17 10:54:30;;;;;;;6.20;3.80;;;;;;;25.76;44.36;100848.44;106540;1283;62116;-82
2022/06/17 10:57:05;;;;;;;7.00;4.20;;;;;;;25.78;44.58;100845.83;106629;1283;74894;-81
2022/06/17 10:59:35;;;;;;;4.90;3.60;;;;;;;25.78;44.34;100842.36;107161;1281;76490;-82
2022/06/17 11:02:01;;;;;;;6.30;3.80;;;;;;;25.79;44.33;100835.98;106863;1283;60769;-80
2022/06/17 11:04:32;;;;;;;5.70;3.80;;;;;;;25.79;44.39;100832.16;106466;1283;61982;-83
2022/06/17 11:07:01;;;;;;;8.00;4.10;;;;;;;25.79;44.23;100828.75;106543;1286;73588;-85
2022/06/17 11:09:29;;;;;;;6.20;3.80;;;;;;;25.80;44.28;100831.60;106976;1283;74707;-84
2022/06/17 11:12:04;;;;;;;5.10;3.40;;;;;;;25.80;44.33;100830.31;106870;1281;62057;-84
2022/06/17 11:14:41;;;;;;;6.20;3.80;;;;;;;25.80;44.37;100828.87;106937;1283;62080;-85
2022/06/17 11:17:36;;;;;;;7.80;3.70;;;;;;;25.79;44.27;100823.15;107226;1281;72710;-82
2022/06/17 11:20:18;;;;;;;7.30;3.60;;;;;;;25.79;44.23;100824.60;107146;1281;75999;-82
2022/06/17 11:22:57;;;;;;;6.30;3.70;;;;;;;25.79;44.09;100819.07;107221;1281;62066;-83
2022/06/17 11:25:41;;;;;;;6.10;4.00;;;;;;;25.79;44.25;100819.18;106850;1281;62315;-83
2022/06/17 11:28:33;;;;;;;5.00;3.80;;;;;;;25.80;44.21;100816.46;106869;1281;73825;-83
2022/06/17 11:31:04;;;;;;;5.50;4.00;;;;;;;25.79;44.27;100813.61;107148;1281;75555;-83
2022/06/17 11:33:32;;;;;;;5.60;3.90;;;;;;;25.79;44.06;100812.19;107204;1281;61958;-83
2022/06/17 11:36:03;;;;;;;6.40;4.20;;;;;;;25.79;44.34;100806.92;107053;1281;59835;-84
2022/06/17 11:38:30;;;;;;;5.90;3.90;;;;;;;25.79;44.19;100808.91;107194;1281;71723;-84
2022/06/17 11:40:56;;;;;;;7.70;4.10;;;;;;;25.80;44.22;100803.11;106865;1283;74404;-83
2022/06/17 11:43:35;;;;;;;7.10;3.90;;;;;;;25.79;44.12;100798.11;106912;1283;62094;-83
2022/06/17 11:46:16;;;;;;;5.90;3.90;;;;;;;25.79;44.23;100798.33;107294;1281;62098;-82